createdAt,value
2023-05-10T00:01:03.618Z,4.53
2023-05-10T00:03:31.068Z,3.83
2023-05-10T00:05:58.737Z,4.60
2023-05-10T00:08:26.005Z,3.97
2023-05-10T00:10:53.840Z,4.40
2023-05-10T00:13:21.298Z,3.78
2023-05-10T00:15:48.982Z,4.00
2023-05-10T00:18:16.291Z,5.45
2023-05-10T00:20:43.844Z,4.40
2023-05-10T00:23:11.168Z,4.20
2023-05-10T00:25:38.728Z,4.53
2023-05-10T00:28:06.029Z,4.10
2023-05-10T00:30:33.684Z,4.38
2023-05-10T00:33:01.409Z,4.05
2023-05-10T00:35:29.150Z,5.28
2023-05-10T00:37:56.491Z,7.25
2023-05-10T00:40:24.123Z,6.78
2023-05-10T00:42:51.556Z,5.82
2023-05-10T00:45:19.309Z,5.13
2023-05-10T00:47:46.950Z,5.43
2023-05-10T00:50:15.342Z,5.30
2023-05-10T00:52:43.853Z,3.70
2023-05-10T00:55:13.467Z,3.70
2023-05-10T00:57:41.249Z,4.15
2023-05-10T01:00:09.323Z,4.28
2023-05-10T01:02:36.710Z,4.20
2023-05-10T01:05:04.757Z,4.10
2023-05-10T01:07:32.186Z,3.40
2023-05-10T01:09:59.990Z,3.55
2023-05-10T01:12:27.480Z,3.15
2023-05-10T01:14:55.840Z,3.42
2023-05-10T01:17:23.772Z,3.33
2023-05-10T01:19:51.488Z,3.85
2023-05-10T01:22:18.756Z,3.75
2023-05-10T01:24:58.716Z,4.00
2023-05-10T01:27:44.470Z,4.30
2023-05-10T01:30:24.412Z,4.68
2023-05-10T01:32:54.823Z,6.60
2023-05-10T01:35:37.622Z,6.70
2023-05-10T01:38:13.304Z,5.72
2023-05-10T01:40:43.893Z,4.22
2023-05-10T01:43:17.251Z,4.10
2023-05-10T01:46:01.660Z,4.25
2023-05-10T01:48:30.087Z,3.40
2023-05-10T01:50:58.340Z,3.75
2023-05-10T01:53:25.722Z,3.90
2023-05-10T01:55:55.915Z,3.38
2023-05-10T01:58:26.249Z,4.43
2023-05-10T02:00:54.178Z,3.97
2023-05-10T02:03:23.683Z,3.95
2023-05-10T02:05:52.323Z,4.65
2023-05-10T02:08:20.648Z,3.30
2023-05-10T02:10:48.728Z,3.67
2023-05-10T02:13:16.844Z,3.92
2023-05-10T02:15:44.891Z,3.50
2023-05-10T02:18:13.255Z,4.43
2023-05-10T02:20:41.197Z,6.78
2023-05-10T02:23:08.994Z,8.52
2023-05-10T02:25:36.989Z,6.20
2023-05-10T02:28:06.346Z,5.05
2023-05-10T02:30:34.588Z,3.70
2023-05-10T02:33:03.006Z,4.18
2023-05-10T02:35:30.852Z,3.95
2023-05-10T02:37:59.682Z,3.90
2023-05-10T02:40:28.944Z,5.70
2023-05-10T02:42:58.166Z,4.55
2023-05-10T02:45:29.151Z,4.93
2023-05-10T02:47:56.947Z,4.85
2023-05-10T02:50:27.506Z,5.80
2023-05-10T02:52:58.098Z,6.68
2023-05-10T02:55:27.809Z,6.93
2023-05-10T02:57:59.952Z,6.53
2023-05-10T03:00:27.878Z,6.50
2023-05-10T03:02:55.750Z,7.07
2023-05-10T03:05:23.364Z,6.47
2023-05-10T03:07:50.800Z,5.90
2023-05-10T03:10:19.040Z,6.05
2023-05-10T03:12:46.737Z,5.65
2023-05-10T03:15:20.500Z,5.95
2023-05-10T03:18:06.725Z,8.65
2023-05-10T03:20:39.620Z,9.23
2023-05-10T03:23:12.831Z,8.25
2023-05-10T03:25:41.032Z,6.20
2023-05-10T03:28:09.040Z,6.45
2023-05-10T03:30:37.554Z,5.75
2023-05-10T03:33:08.306Z,6.70
2023-05-10T03:35:36.282Z,5.00
2023-05-10T03:38:03.843Z,5.13
2023-05-10T03:40:32.982Z,5.20
2023-05-10T03:43:00.518Z,5.50
2023-05-10T03:45:28.686Z,4.85
2023-05-10T03:47:56.318Z,5.75
2023-05-10T03:50:24.032Z,5.22
2023-05-10T03:52:52.975Z,5.72
2023-05-10T03:55:21.768Z,5.00
2023-05-10T03:57:50.659Z,5.47
2023-05-10T04:00:18.557Z,6.13
2023-05-10T04:02:46.461Z,6.30
2023-05-10T04:05:14.271Z,5.28
2023-05-10T04:07:41.804Z,5.97
2023-05-10T04:10:09.781Z,5.30
2023-05-10T04:12:37.136Z,5.85
2023-05-10T04:15:04.946Z,5.82
2023-05-10T04:17:32.396Z,5.72
2023-05-10T04:20:00.047Z,5.35
2023-05-10T04:22:28.775Z,5.63
2023-05-10T04:24:56.626Z,6.20
2023-05-10T04:27:24.008Z,6.00
2023-05-10T04:29:51.858Z,5.32
2023-05-10T04:32:19.884Z,5.35
2023-05-10T04:34:47.658Z,5.60
2023-05-10T04:37:14.997Z,6.28
2023-05-10T04:39:42.702Z,9.02
2023-05-10T04:42:10.131Z,15.38
2023-05-10T04:44:38.050Z,11.43
2023-05-10T04:47:05.517Z,7.47
2023-05-10T04:49:33.248Z,6.25
2023-05-10T04:52:00.564Z,5.45
2023-05-10T04:54:28.177Z,4.78
2023-05-10T04:56:55.733Z,3.95
2023-05-10T04:59:23.615Z,4.28
2023-05-10T05:01:51.317Z,3.97
2023-05-10T05:04:19.256Z,3.70
2023-05-10T05:06:46.829Z,4.40
2023-05-10T05:09:15.049Z,3.50
2023-05-10T05:11:42.441Z,4.20
2023-05-10T05:14:10.251Z,4.57
2023-05-10T05:16:37.961Z,4.03
2023-05-10T05:19:05.895Z,3.97
2023-05-10T05:21:33.710Z,4.45
2023-05-10T05:24:02.389Z,3.97
2023-05-10T05:26:29.939Z,4.13
2023-05-10T05:28:57.907Z,4.07
2023-05-10T05:31:25.297Z,4.35
2023-05-10T05:33:53.205Z,4.47
2023-05-10T05:36:20.843Z,4.07
2023-05-10T05:38:48.691Z,4.22
2023-05-10T05:41:16.193Z,4.80
2023-05-10T05:43:43.866Z,4.07
2023-05-10T05:46:11.323Z,3.67
2023-05-10T05:48:39.247Z,3.28
2023-05-10T05:51:07.997Z,3.58
2023-05-10T05:53:35.928Z,4.55
2023-05-10T05:56:04.640Z,3.92
2023-05-10T05:58:32.031Z,4.00
2023-05-10T06:01:00.413Z,4.50
2023-05-10T06:03:27.824Z,3.65
2023-05-10T06:05:55.516Z,3.30
2023-05-10T06:08:23.397Z,3.97
2023-05-10T06:10:51.642Z,3.88
2023-05-10T06:13:19.036Z,3.40
2023-05-10T06:15:47.342Z,3.20
2023-05-10T06:18:14.700Z,4.00
2023-05-10T06:20:43.951Z,3.17
2023-05-10T06:23:11.320Z,3.35
2023-05-10T06:25:39.253Z,3.40
2023-05-10T06:28:07.154Z,3.25
2023-05-10T06:30:34.872Z,3.25
2023-05-10T06:33:02.222Z,3.22
2023-05-10T06:35:30.210Z,3.50
2023-05-10T06:37:57.693Z,2.95
2023-05-10T06:40:25.689Z,3.08
2023-05-10T06:42:53.089Z,3.80
2023-05-10T06:45:21.190Z,3.28
2023-05-10T06:47:48.742Z,3.10
2023-05-10T06:50:16.391Z,3.97
2023-05-10T06:52:44.154Z,3.45
2023-05-10T06:55:12.458Z,3.53
2023-05-10T06:57:39.781Z,3.80
2023-05-10T07:00:08.019Z,3.55
2023-05-10T07:02:35.494Z,3.90
2023-05-10T07:05:03.703Z,2.35
2023-05-10T07:07:31.454Z,2.45
2023-05-10T07:09:59.541Z,2.63
2023-05-10T07:12:27.064Z,2.85
2023-05-10T07:14:54.841Z,2.83
2023-05-10T07:17:22.421Z,2.88
2023-05-10T07:19:50.128Z,2.78
2023-05-10T07:22:20.503Z,3.13
2023-05-10T07:24:48.189Z,3.20
2023-05-10T07:27:15.914Z,3.15
2023-05-10T07:29:43.580Z,2.72
2023-05-10T07:32:11.015Z,3.03
2023-05-10T07:34:38.867Z,2.88
2023-05-10T07:37:07.229Z,2.92
2023-05-10T07:39:34.998Z,2.67
2023-05-10T07:42:03.838Z,3.03
2023-05-10T07:44:31.769Z,2.30
2023-05-10T07:46:59.260Z,2.60
2023-05-10T07:49:27.412Z,2.67
2023-05-10T07:51:55.144Z,2.65
2023-05-10T07:54:22.926Z,2.40
2023-05-10T07:56:50.303Z,3.00
2023-05-10T07:59:18.597Z,2.25
2023-05-10T08:01:46.474Z,2.53
2023-05-10T08:04:14.768Z,2.33
2023-05-10T08:06:42.578Z,2.60
2023-05-10T08:09:11.920Z,2.85
2023-05-10T08:11:39.377Z,3.00
2023-05-10T08:14:07.244Z,2.53
2023-05-10T08:16:35.476Z,2.25
2023-05-10T08:19:03.312Z,2.55
2023-05-10T08:21:32.266Z,2.75
2023-05-10T08:24:00.138Z,2.10
2023-05-10T08:26:27.910Z,2.60
2023-05-10T08:28:55.727Z,2.00
2023-05-10T08:31:23.083Z,2.50
2023-05-10T08:33:52.627Z,2.05
2023-05-10T08:36:25.544Z,2.25
2023-05-10T08:38:53.588Z,2.08
2023-05-10T08:41:25.497Z,2.47
2023-05-10T08:43:54.013Z,2.33
2023-05-10T08:46:22.139Z,3.03
2023-05-10T08:48:51.053Z,2.30
2023-05-10T08:51:26.248Z,2.80
2023-05-10T08:53:54.385Z,1.90
2023-05-10T08:56:21.953Z,2.50
2023-05-10T08:58:50.866Z,2.20
2023-05-10T09:01:19.412Z,2.35
2023-05-10T09:03:48.847Z,2.30
2023-05-10T09:06:16.800Z,2.15
2023-05-10T09:08:45.687Z,2.42
2023-05-10T09:11:13.932Z,2.22
2023-05-10T09:13:41.784Z,2.42
2023-05-10T09:16:20.327Z,2.60
2023-05-10T09:18:50.500Z,3.03
2023-05-10T09:21:18.259Z,3.28
2023-05-10T09:23:51.016Z,3.03
2023-05-10T09:26:18.843Z,2.80
2023-05-10T09:28:52.727Z,2.70
2023-05-10T09:31:20.161Z,2.25
2023-05-10T09:33:48.507Z,2.25
2023-05-10T09:36:16.084Z,2.20
2023-05-10T09:38:50.262Z,2.40
2023-05-10T09:41:21.572Z,2.15
2023-05-10T09:43:49.540Z,2.20
2023-05-10T09:46:17.798Z,2.53
2023-05-10T09:48:47.247Z,2.53
2023-05-10T09:51:24.473Z,2.60
2023-05-10T09:54:30.811Z,2.17
2023-05-10T09:56:58.301Z,2.55
2023-05-10T09:59:28.340Z,2.30
2023-05-10T10:02:02.372Z,3.00
2023-05-10T10:04:30.623Z,2.28
2023-05-10T10:07:02.036Z,2.45
2023-05-10T10:09:30.126Z,2.20
2023-05-10T10:11:57.794Z,2.03
2023-05-10T10:14:25.692Z,2.53
2023-05-10T10:17:06.563Z,2.10
2023-05-10T10:19:36.764Z,2.50
2023-05-10T10:22:05.278Z,2.50
2023-05-10T10:24:33.070Z,2.88
2023-05-10T10:27:14.377Z,2.13
2023-05-10T10:30:02.781Z,3.00
2023-05-10T10:32:30.223Z,2.53
2023-05-10T10:34:58.352Z,2.75
2023-05-10T10:37:25.890Z,2.60
2023-05-10T10:39:53.796Z,1.90
2023-05-10T10:42:41.518Z,2.78
2023-05-10T10:45:16.004Z,2.28
2023-05-10T10:47:44.691Z,2.30
2023-05-10T10:50:17.453Z,2.65
2023-05-10T10:52:45.377Z,2.60
2023-05-10T10:55:26.070Z,3.28
2023-05-10T10:58:17.884Z,3.25
2023-05-10T11:00:46.447Z,2.40
2023-05-10T11:03:17.891Z,2.42
2023-05-10T11:05:45.961Z,2.75
2023-05-10T11:08:15.088Z,2.88
2023-05-10T11:10:52.955Z,2.85
2023-05-10T11:13:29.002Z,2.65
2023-05-10T11:15:58.323Z,3.05
2023-05-10T11:18:26.712Z,2.60
2023-05-10T11:21:01.348Z,2.65
2023-05-10T11:23:32.574Z,4.07
2023-05-10T11:26:01.584Z,2.53
2023-05-10T11:28:29.450Z,2.78
2023-05-10T11:30:57.397Z,2.50
2023-05-10T11:33:25.037Z,2.40
2023-05-10T11:35:52.743Z,2.65
2023-05-10T11:38:20.239Z,2.47
2023-05-10T11:40:47.959Z,2.50
2023-05-10T11:43:15.333Z,2.75
2023-05-10T11:45:43.432Z,2.40
2023-05-10T11:48:11.081Z,2.60
2023-05-10T11:50:39.027Z,2.70
2023-05-10T11:53:06.541Z,2.70
2023-05-10T11:55:35.342Z,2.53
2023-05-10T11:58:03.697Z,2.63
2023-05-10T12:00:31.989Z,2.42
2023-05-10T12:02:59.921Z,2.38
2023-05-10T12:05:28.011Z,2.67
2023-05-10T12:08:12.012Z,2.85
2023-05-10T12:10:39.708Z,3.00
2023-05-10T12:13:08.100Z,2.00
2023-05-10T12:15:35.815Z,2.55
2023-05-10T12:18:04.081Z,2.70
2023-05-10T12:20:31.809Z,3.45
2023-05-10T12:23:00.622Z,3.30
2023-05-10T12:25:31.507Z,3.50
2023-05-10T12:28:01.874Z,2.60
2023-05-10T12:30:30.471Z,2.60
2023-05-10T12:33:02.263Z,2.17
2023-05-10T12:35:32.960Z,3.07
2023-05-10T12:38:00.467Z,3.08
2023-05-10T12:40:28.098Z,2.97
2023-05-10T12:42:55.500Z,2.45
2023-05-10T12:45:23.406Z,2.70
2023-05-10T12:47:50.821Z,2.50
2023-05-10T12:50:18.640Z,2.30
2023-05-10T12:52:46.161Z,2.50
2023-05-10T12:55:13.862Z,2.38
2023-05-10T12:57:41.190Z,2.92
2023-05-10T13:02:54.541Z,2.50
2023-05-10T13:05:22.367Z,2.85
2023-05-10T13:07:49.837Z,2.30
2023-05-10T13:10:18.311Z,3.47
2023-05-10T13:12:45.950Z,2.38
2023-05-10T13:15:13.736Z,2.60
2023-05-10T13:17:41.779Z,3.15
2023-05-10T13:20:10.651Z,2.50
2023-05-10T13:22:40.578Z,3.22
2023-05-10T13:25:08.861Z,2.90
2023-05-10T13:27:36.303Z,3.45
2023-05-10T13:30:04.972Z,2.58
2023-05-10T13:32:32.490Z,2.42
2023-05-10T13:35:00.640Z,2.35
2023-05-10T13:37:28.124Z,2.72
2023-05-10T13:39:55.933Z,2.67
2023-05-10T13:42:26.847Z,2.38
2023-05-10T13:44:54.573Z,2.80
2023-05-10T13:47:23.440Z,2.45
2023-05-10T13:49:51.472Z,2.63
2023-05-10T13:52:19.256Z,2.60
2023-05-10T13:54:47.268Z,2.83
2023-05-10T13:57:15.059Z,2.50
2023-05-10T13:59:42.881Z,2.33
2023-05-10T14:02:10.318Z,2.60
2023-05-10T14:04:38.791Z,2.30
2023-05-10T14:07:06.602Z,2.63
2023-05-10T14:09:34.560Z,2.63
2023-05-10T14:12:02.436Z,3.00
2023-05-10T14:14:30.479Z,2.28
2023-05-10T14:16:57.904Z,2.65
2023-05-10T14:19:25.895Z,2.58
2023-05-10T14:21:53.312Z,2.50
2023-05-10T14:24:21.183Z,2.40
2023-05-10T14:26:48.842Z,2.33
2023-05-10T14:29:16.602Z,2.30
2023-05-10T14:31:44.064Z,3.10
2023-05-10T14:34:12.067Z,2.35
2023-05-10T14:36:40.010Z,2.75
2023-05-10T14:39:08.026Z,2.45
2023-05-10T14:41:35.541Z,2.58
2023-05-10T14:44:04.381Z,2.60
2023-05-10T14:46:32.017Z,2.78
2023-05-10T14:48:59.955Z,3.42
2023-05-10T14:51:27.477Z,3.10
2023-05-10T14:53:55.260Z,2.70
2023-05-10T14:56:23.102Z,2.50
2023-05-10T14:58:51.714Z,2.83
2023-05-10T15:01:20.123Z,3.22
2023-05-10T15:03:48.856Z,2.97
2023-05-10T15:06:17.459Z,2.80
2023-05-10T15:08:45.355Z,2.53
2023-05-10T15:11:13.023Z,2.83
2023-05-10T15:13:41.078Z,3.55
2023-05-10T15:16:08.699Z,2.85
2023-05-10T15:18:37.062Z,2.33
2023-05-10T15:21:04.845Z,2.83
2023-05-10T15:23:33.182Z,2.60
2023-05-10T15:26:00.617Z,2.40
2023-05-10T15:28:28.524Z,3.10
2023-05-10T15:30:57.222Z,2.85
2023-05-10T15:33:25.766Z,3.00
2023-05-10T15:35:54.782Z,2.78
2023-05-10T15:38:22.691Z,2.70
2023-05-10T15:40:50.328Z,2.85
2023-05-10T15:43:18.195Z,2.97
2023-05-10T15:45:45.672Z,3.03
2023-05-10T15:48:13.458Z,2.30
2023-05-10T15:50:41.538Z,3.42
2023-05-10T15:53:09.459Z,2.67
2023-05-10T15:55:37.565Z,2.13
2023-05-10T15:58:05.319Z,2.35
2023-05-10T16:00:32.830Z,2.22
2023-05-10T16:03:00.947Z,2.90
2023-05-10T16:05:32.068Z,2.55
2023-05-10T16:08:00.490Z,2.85
2023-05-10T16:10:28.200Z,2.63
2023-05-10T16:12:56.487Z,3.08
2023-05-10T16:15:23.956Z,2.78
2023-05-10T16:17:52.057Z,2.38
2023-05-10T16:20:19.821Z,2.65
2023-05-10T16:22:47.667Z,2.55
2023-05-10T16:25:15.492Z,2.60
2023-05-10T16:27:44.470Z,2.50
2023-05-10T16:30:12.563Z,2.20
2023-05-10T16:32:40.485Z,2.30
2023-05-10T16:35:08.275Z,2.40
2023-05-10T16:37:36.319Z,2.20
2023-05-10T16:40:03.998Z,2.60
2023-05-10T16:42:31.732Z,2.67
2023-05-10T16:45:07.606Z,2.67
2023-05-10T16:47:40.536Z,2.28
2023-05-10T16:50:08.849Z,3.13
2023-05-10T16:52:38.056Z,2.95
2023-05-10T16:55:06.077Z,2.80
2023-05-10T16:57:33.895Z,2.85
2023-05-10T17:00:01.443Z,2.88
2023-05-10T17:02:29.617Z,2.78
2023-05-10T17:04:57.367Z,2.95
2023-05-10T17:07:26.310Z,2.67
2023-05-10T17:09:54.350Z,3.60
2023-05-10T17:12:21.793Z,2.60
2023-05-10T17:14:49.494Z,4.10
2023-05-10T17:17:17.103Z,4.40
2023-05-10T17:19:47.718Z,4.05
2023-05-10T17:22:15.840Z,4.65
2023-05-10T17:24:43.394Z,4.00
2023-05-10T17:27:11.347Z,4.03
2023-05-10T17:29:38.716Z,3.45
2023-05-10T17:32:06.660Z,3.28
2023-05-10T17:34:34.164Z,3.75
2023-05-10T17:37:02.478Z,3.90
2023-05-10T17:39:30.248Z,4.30
2023-05-10T17:41:58.308Z,4.60
2023-05-10T17:44:26.130Z,4.38
2023-05-10T17:46:54.062Z,5.30
2023-05-10T17:49:21.526Z,4.47
2023-05-10T17:51:49.666Z,5.00
2023-05-10T17:54:17.310Z,4.43
2023-05-10T17:56:45.210Z,3.67
2023-05-10T17:59:12.668Z,4.63
2023-05-10T18:01:41.587Z,3.10
2023-05-10T18:04:09.062Z,3.22
2023-05-10T18:06:37.379Z,2.97
2023-05-10T18:09:07.185Z,3.38
2023-05-10T18:11:38.795Z,4.63
2023-05-10T18:14:07.067Z,4.20
2023-05-10T18:16:34.780Z,4.05
2023-05-10T18:19:02.519Z,3.03
2023-05-10T18:21:31.348Z,3.38
2023-05-10T18:23:58.798Z,4.07
2023-05-10T18:26:26.745Z,6.22
2023-05-10T18:28:54.195Z,8.55
2023-05-10T18:31:22.231Z,7.00
2023-05-10T18:33:49.708Z,6.50
2023-05-10T18:36:17.491Z,7.43
2023-05-10T18:38:45.526Z,6.68
2023-05-10T18:41:14.580Z,6.55
2023-05-10T18:43:43.091Z,6.32
2023-05-10T18:46:11.003Z,6.20
2023-05-10T18:48:38.916Z,5.72
2023-05-10T18:51:07.007Z,4.68
2023-05-10T18:53:34.428Z,5.18
2023-05-10T18:56:02.630Z,5.30
2023-05-10T18:58:30.639Z,6.13
2023-05-10T19:00:58.869Z,5.82
2023-05-10T19:03:26.281Z,5.00
2023-05-10T19:05:53.946Z,5.05
2023-05-10T19:08:21.340Z,5.07
2023-05-10T19:10:49.050Z,5.30
2023-05-10T19:13:16.543Z,5.60
2023-05-10T19:15:44.493Z,5.05
2023-05-10T19:18:13.834Z,5.80
2023-05-10T19:20:42.568Z,9.00
2023-05-10T19:23:10.935Z,9.20
2023-05-10T19:25:39.358Z,7.90
2023-05-10T19:28:06.950Z,16.48
2023-05-10T19:30:34.579Z,12.32
2023-05-10T19:33:04.942Z,11.27
2023-05-10T19:35:32.976Z,9.65
2023-05-10T19:38:00.449Z,8.18
2023-05-10T19:40:28.095Z,8.38
2023-05-10T19:42:57.002Z,9.70
2023-05-10T19:45:24.741Z,8.60
2023-05-10T19:47:52.220Z,7.75
2023-05-10T19:50:20.163Z,5.80
2023-05-10T19:52:48.115Z,5.60
2023-05-10T19:55:16.669Z,6.22
2023-05-10T19:57:45.355Z,7.90
2023-05-10T20:00:14.431Z,9.48
2023-05-10T20:02:43.061Z,8.30
2023-05-10T20:05:11.497Z,7.47
2023-05-10T20:07:38.897Z,6.70
2023-05-10T20:10:06.687Z,6.38
2023-05-10T20:12:33.984Z,5.95
2023-05-10T20:15:02.051Z,5.43
2023-05-10T20:17:29.381Z,6.55
2023-05-10T20:19:57.150Z,8.20
2023-05-10T20:22:24.709Z,9.35
2023-05-10T20:24:54.333Z,7.78
2023-05-10T20:27:23.142Z,7.55
2023-05-10T20:29:50.864Z,6.57
2023-05-10T20:32:18.169Z,6.72
2023-05-10T20:34:45.724Z,6.60
2023-05-10T20:37:13.360Z,6.63
2023-05-10T20:39:41.096Z,5.75
2023-05-10T20:42:08.375Z,6.28
2023-05-10T20:44:36.315Z,5.15
2023-05-10T20:47:03.833Z,5.10
2023-05-10T20:49:31.633Z,4.70
2023-05-10T20:51:58.987Z,4.60
2023-05-10T20:54:27.060Z,4.72
2023-05-10T20:56:55.024Z,6.32
2023-05-10T20:59:23.310Z,4.95
2023-05-10T21:01:52.206Z,4.57
2023-05-10T21:04:20.165Z,5.10
2023-05-10T21:06:47.596Z,4.65
2023-05-10T21:09:17.577Z,4.25
2023-05-10T21:11:45.749Z,3.33
2023-05-10T21:14:13.816Z,3.90
2023-05-10T21:16:41.309Z,4.32
2023-05-10T21:19:09.016Z,4.65
2023-05-10T21:21:36.438Z,3.90
2023-05-10T21:24:04.189Z,4.43
2023-05-10T21:26:31.547Z,5.30
2023-05-10T21:28:59.362Z,5.57
2023-05-10T21:31:26.869Z,5.40
2023-05-10T21:33:54.774Z,6.35
2023-05-10T21:36:22.323Z,4.43
2023-05-10T21:38:50.541Z,4.20
2023-05-10T21:41:18.015Z,4.38
2023-05-10T21:43:45.763Z,3.45
2023-05-10T21:46:14.292Z,3.72
2023-05-10T21:48:42.141Z,4.90
2023-05-10T21:51:10.236Z,4.63
2023-05-10T21:53:39.015Z,6.00
2023-05-10T21:56:07.304Z,5.57
2023-05-10T21:58:35.054Z,6.18
2023-05-10T22:01:03.281Z,5.25
2023-05-10T22:03:31.147Z,5.22
2023-05-10T22:05:58.624Z,5.00
2023-05-10T22:08:26.702Z,3.78
2023-05-10T22:10:53.977Z,4.10
2023-05-10T22:13:21.625Z,3.50
2023-05-10T22:15:49.047Z,3.83
2023-05-10T22:18:16.867Z,4.57
2023-05-10T22:20:47.231Z,5.10
2023-05-10T22:23:14.836Z,5.75
2023-05-10T22:25:42.160Z,5.88
2023-05-10T22:28:09.992Z,4.53
2023-05-10T22:30:37.585Z,12.35
2023-05-10T22:33:05.249Z,7.43
2023-05-10T22:35:32.651Z,5.80
2023-05-10T22:38:00.332Z,3.85
2023-05-10T22:40:27.731Z,3.63
2023-05-10T22:42:55.326Z,3.35
2023-05-10T22:45:22.700Z,3.33
2023-05-10T22:47:50.474Z,2.67
2023-05-10T22:50:18.643Z,3.58
2023-05-10T22:52:46.683Z,3.25
2023-05-10T22:55:14.060Z,3.80
2023-05-10T22:57:41.692Z,3.60
2023-05-10T23:00:09.257Z,3.55
2023-05-10T23:02:36.986Z,4.22
2023-05-10T23:05:05.374Z,5.05
2023-05-10T23:07:33.233Z,4.30
2023-05-10T23:10:00.586Z,4.72
2023-05-10T23:12:28.283Z,4.75
2023-05-10T23:14:56.521Z,4.20
2023-05-10T23:17:24.186Z,4.55
2023-05-10T23:19:51.521Z,3.58
2023-05-10T23:22:19.197Z,4.20
2023-05-10T23:24:46.607Z,3.55
2023-05-10T23:27:14.676Z,3.33
2023-05-10T23:29:42.538Z,3.65
2023-05-10T23:32:10.367Z,3.00
2023-05-10T23:34:37.768Z,3.30
2023-05-10T23:37:06.163Z,3.33
2023-05-10T23:39:33.880Z,3.28
2023-05-10T23:42:01.869Z,3.67
2023-05-10T23:44:29.181Z,3.28
2023-05-10T23:46:56.747Z,2.63
2023-05-10T23:49:24.052Z,3.55
2023-05-10T23:51:51.956Z,3.53
2023-05-10T23:54:19.365Z,3.45
2023-05-10T23:56:46.974Z,4.55
2023-05-10T23:59:14.250Z,3.83
